sensor_id;sensor_type;location;lat;lon;timestamp;P1;durP1;ratioP1;P2;durP2;ratioP2
58661;SDS011;44432;49.786;22.760;2022-09-09T00:00:38;33.80;;;28.70;;
58661;SDS011;44432;49.786;22.760;2022-09-09T00:03:30;35.90;;;29.20;;
58661;SDS011;44432;49.786;22.760;2022-09-09T00:06:08;36.30;;;30.50;;
58661;SDS011;44432;49.786;22.760;2022-09-09T00:08:48;35.20;;;26.80;;
58661;SDS011;44432;49.786;22.760;2022-09-09T00:14:01;37.60;;;30.90;;
58661;SDS011;44432;49.786;22.760;2022-09-09T00:16:40;36.30;;;29.90;;
58661;SDS011;44432;49.786;22.760;2022-09-09T00:19:19;39.60;;;31.40;;
58661;SDS011;44432;49.786;22.760;2022-09-09T00:21:56;34.60;;;29.50;;
58661;SDS011;44432;49.786;22.760;2022-09-09T00:24:38;35.70;;;29.70;;
58661;SDS011;44432;49.786;22.760;2022-09-09T00:27:16;37.10;;;30.50;;
58661;SDS011;44432;49.786;22.760;2022-09-09T00:29:53;36.10;;;28.30;;
58661;SDS011;44432;49.786;22.760;2022-09-09T00:32:29;36.50;;;29.80;;
58661;SDS011;44432;49.786;22.760;2022-09-09T00:35:04;33.40;;;27.40;;
58661;SDS011;44432;49.786;22.760;2022-09-09T00:37:46;35.30;;;27.10;;
58661;SDS011;44432;49.786;22.760;2022-09-09T00:40:25;38.70;;;28.40;;
58661;SDS011;44432;49.786;22.760;2022-09-09T00:43:04;32.80;;;27.40;;
58661;SDS011;44432;49.786;22.760;2022-09-09T00:45:56;36.20;;;27.10;;
58661;SDS011;44432;49.786;22.760;2022-09-09T00:48:38;34.30;;;26.70;;
58661;SDS011;44432;49.786;22.760;2022-09-09T00:53:58;34.40;;;27.20;;
58661;SDS011;44432;49.786;22.760;2022-09-09T00:56:43;35.40;;;26.90;;
58661;SDS011;44432;49.786;22.760;2022-09-09T00:59:24;35.10;;;27.40;;
58661;SDS011;44432;49.786;22.760;2022-09-09T01:02:04;34.30;;;26.10;;
58661;SDS011;44432;49.786;22.760;2022-09-09T01:04:42;33.20;;;27.10;;
58661;SDS011;44432;49.786;22.760;2022-09-09T01:07:15;36.50;;;26.20;;
58661;SDS011;44432;49.786;22.760;2022-09-09T01:09:52;32.50;;;25.80;;
58661;SDS011;44432;49.786;22.760;2022-09-09T01:12:28;36.20;;;26.50;;
58661;SDS011;44432;49.786;22.760;2022-09-09T01:15:07;36.10;;;26.80;;
58661;SDS011;44432;49.786;22.760;2022-09-09T01:17:44;33.00;;;25.50;;
58661;SDS011;44432;49.786;22.760;2022-09-09T01:20:23;35.80;;;26.10;;
58661;SDS011;44432;49.786;22.760;2022-09-09T01:23:04;33.40;;;25.80;;
58661;SDS011;44432;49.786;22.760;2022-09-09T01:26:04;34.30;;;26.90;;
58661;SDS011;44432;49.786;22.760;2022-09-09T01:28:43;39.70;;;25.00;;
58661;SDS011;44432;49.786;22.760;2022-09-09T01:31:17;32.80;;;25.00;;
58661;SDS011;44432;49.786;22.760;2022-09-09T01:33:50;30.90;;;25.10;;
58661;SDS011;44432;49.786;22.760;2022-09-09T01:36:26;33.00;;;25.30;;
58661;SDS011;44432;49.786;22.760;2022-09-09T01:39:03;33.10;;;24.80;;
58661;SDS011;44432;49.786;22.760;2022-09-09T01:41:34;33.60;;;25.10;;
58661;SDS011;44432;49.786;22.760;2022-09-09T01:44:05;32.40;;;25.00;;
58661;SDS011;44432;49.786;22.760;2022-09-09T01:46:37;34.50;;;24.90;;
58661;SDS011;44432;49.786;22.760;2022-09-09T01:49:07;34.10;;;26.00;;
58661;SDS011;44432;49.786;22.760;2022-09-09T01:51:40;29.60;;;23.60;;
58661;SDS011;44432;49.786;22.760;2022-09-09T01:54:12;35.10;;;25.30;;
58661;SDS011;44432;49.786;22.760;2022-09-09T01:56:46;34.90;;;24.10;;
58661;SDS011;44432;49.786;22.760;2022-09-09T01:59:29;31.60;;;23.90;;
58661;SDS011;44432;49.786;22.760;2022-09-09T02:02:16;29.60;;;23.80;;
58661;SDS011;44432;49.786;22.760;2022-09-09T02:04:52;33.10;;;23.90;;
58661;SDS011;44432;49.786;22.760;2022-09-09T02:07:31;30.50;;;22.60;;
58661;SDS011;44432;49.786;22.760;2022-09-09T02:10:09;30.00;;;22.50;;
58661;SDS011;44432;49.786;22.760;2022-09-09T02:12:44;34.90;;;22.70;;
58661;SDS011;44432;49.786;22.760;2022-09-09T02:15:20;31.00;;;22.90;;
58661;SDS011;44432;49.786;22.760;2022-09-09T02:17:55;32.30;;;23.50;;
58661;SDS011;44432;49.786;22.760;2022-09-09T02:20:30;31.20;;;22.90;;
58661;SDS011;44432;49.786;22.760;2022-09-09T02:23:02;32.50;;;22.70;;
58661;SDS011;44432;49.786;22.760;2022-09-09T02:25:36;28.10;;;22.30;;
58661;SDS011;44432;49.786;22.760;2022-09-09T02:28:08;32.60;;;24.30;;
58661;SDS011;44432;49.786;22.760;2022-09-09T02:30:40;29.30;;;22.50;;
58661;SDS011;44432;49.786;22.760;2022-09-09T02:33:14;31.10;;;22.50;;
58661;SDS011;44432;49.786;22.760;2022-09-09T02:35:45;30.40;;;22.50;;
58661;SDS011;44432;49.786;22.760;2022-09-09T02:38:18;28.40;;;22.40;;
58661;SDS011;44432;49.786;22.760;2022-09-09T02:40:55;27.50;;;21.70;;
58661;SDS011;44432;49.786;22.760;2022-09-09T02:43:25;28.60;;;22.10;;
58661;SDS011;44432;49.786;22.760;2022-09-09T02:46:02;27.40;;;21.80;;
58661;SDS011;44432;49.786;22.760;2022-09-09T02:48:42;28.30;;;21.10;;
58661;SDS011;44432;49.786;22.760;2022-09-09T02:51:22;29.20;;;21.50;;
58661;SDS011;44432;49.786;22.760;2022-09-09T02:54:02;30.20;;;22.70;;
58661;SDS011;44432;49.786;22.760;2022-09-09T02:56:41;30.30;;;22.00;;
58661;SDS011;44432;49.786;22.760;2022-09-09T02:59:17;32.50;;;21.20;;
58661;SDS011;44432;49.786;22.760;2022-09-09T03:01:48;28.60;;;21.80;;
58661;SDS011;44432;49.786;22.760;2022-09-09T03:04:20;28.60;;;22.10;;
58661;SDS011;44432;49.786;22.760;2022-09-09T03:06:52;31.00;;;21.90;;
58661;SDS011;44432;49.786;22.760;2022-09-09T03:09:23;25.80;;;20.70;;
58661;SDS011;44432;49.786;22.760;2022-09-09T03:11:54;33.30;;;22.60;;
58661;SDS011;44432;49.786;22.760;2022-09-09T03:14:25;29.60;;;22.10;;
58661;SDS011;44432;49.786;22.760;2022-09-09T03:16:55;28.20;;;21.60;;
58661;SDS011;44432;49.786;22.760;2022-09-09T03:21:57;30.20;;;21.20;;
58661;SDS011;44432;49.786;22.760;2022-09-09T03:24:28;28.50;;;21.50;;
58661;SDS011;44432;49.786;22.760;2022-09-09T03:26:58;27.60;;;21.20;;
58661;SDS011;44432;49.786;22.760;2022-09-09T03:29:29;30.30;;;22.20;;
58661;SDS011;44432;49.786;22.760;2022-09-09T03:32:00;29.20;;;22.30;;
58661;SDS011;44432;49.786;22.760;2022-09-09T03:34:31;29.50;;;21.80;;
58661;SDS011;44432;49.786;22.760;2022-09-09T03:37:02;28.70;;;21.80;;
58661;SDS011;44432;49.786;22.760;2022-09-09T03:39:33;29.10;;;22.20;;
58661;SDS011;44432;49.786;22.760;2022-09-09T03:42:04;33.50;;;22.70;;
58661;SDS011;44432;49.786;22.760;2022-09-09T03:44:34;31.70;;;23.60;;
58661;SDS011;44432;49.786;22.760;2022-09-09T03:47:05;29.30;;;22.80;;
58661;SDS011;44432;49.786;22.760;2022-09-09T03:49:35;30.20;;;23.30;;
58661;SDS011;44432;49.786;22.760;2022-09-09T03:52:06;32.00;;;24.20;;
58661;SDS011;44432;49.786;22.760;2022-09-09T03:54:38;31.70;;;23.60;;
58661;SDS011;44432;49.786;22.760;2022-09-09T03:57:10;32.20;;;22.90;;
58661;SDS011;44432;49.786;22.760;2022-09-09T04:02:12;28.50;;;22.80;;
58661;SDS011;44432;49.786;22.760;2022-09-09T04:04:43;31.10;;;23.50;;
58661;SDS011;44432;49.786;22.760;2022-09-09T04:07:13;33.10;;;23.60;;
58661;SDS011;44432;49.786;22.760;2022-09-09T04:09:44;31.30;;;23.50;;
58661;SDS011;44432;49.786;22.760;2022-09-09T04:12:14;30.10;;;23.10;;
58661;SDS011;44432;49.786;22.760;2022-09-09T04:14:45;31.50;;;22.90;;
58661;SDS011;44432;49.786;22.760;2022-09-09T04:17:16;28.80;;;21.80;;
58661;SDS011;44432;49.786;22.760;2022-09-09T04:19:46;26.10;;;21.70;;
58661;SDS011;44432;49.786;22.760;2022-09-09T04:22:17;28.40;;;22.00;;
58661;SDS011;44432;49.786;22.760;2022-09-09T04:24:47;29.60;;;23.10;;
58661;SDS011;44432;49.786;22.760;2022-09-09T04:27:18;28.50;;;22.70;;
58661;SDS011;44432;49.786;22.760;2022-09-09T04:29:48;29.70;;;22.40;;
58661;SDS011;44432;49.786;22.760;2022-09-09T04:32:19;30.70;;;23.20;;
58661;SDS011;44432;49.786;22.760;2022-09-09T04:34:50;32.20;;;23.40;;
58661;SDS011;44432;49.786;22.760;2022-09-09T04:37:20;30.10;;;22.30;;
58661;SDS011;44432;49.786;22.760;2022-09-09T04:39:52;28.90;;;22.40;;
58661;SDS011;44432;49.786;22.760;2022-09-09T04:42:23;31.60;;;24.60;;
58661;SDS011;44432;49.786;22.760;2022-09-09T04:44:55;31.60;;;23.70;;
58661;SDS011;44432;49.786;22.760;2022-09-09T04:47:25;28.40;;;22.40;;
58661;SDS011;44432;49.786;22.760;2022-09-09T04:49:56;38.70;;;29.30;;
58661;SDS011;44432;49.786;22.760;2022-09-09T04:52:26;28.10;;;23.30;;
58661;SDS011;44432;49.786;22.760;2022-09-09T04:54:57;28.50;;;21.70;;
58661;SDS011;44432;49.786;22.760;2022-09-09T04:57:28;30.30;;;21.90;;
58661;SDS011;44432;49.786;22.760;2022-09-09T04:59:59;27.50;;;21.20;;
58661;SDS011;44432;49.786;22.760;2022-09-09T05:02:31;28.60;;;21.30;;
58661;SDS011;44432;49.786;22.760;2022-09-09T05:05:02;27.90;;;20.50;;
58661;SDS011;44432;49.786;22.760;2022-09-09T05:07:33;29.50;;;21.50;;
58661;SDS011;44432;49.786;22.760;2022-09-09T05:10:04;44.10;;;35.20;;
58661;SDS011;44432;49.786;22.760;2022-09-09T05:12:35;27.30;;;21.60;;
58661;SDS011;44432;49.786;22.760;2022-09-09T05:15:06;27.20;;;20.00;;
58661;SDS011;44432;49.786;22.760;2022-09-09T05:17:39;33.00;;;20.90;;
58661;SDS011;44432;49.786;22.760;2022-09-09T05:20:10;26.80;;;19.40;;
58661;SDS011;44432;49.786;22.760;2022-09-09T05:22:41;27.70;;;18.70;;
58661;SDS011;44432;49.786;22.760;2022-09-09T05:25:11;27.20;;;20.10;;
58661;SDS011;44432;49.786;22.760;2022-09-09T05:27:42;25.00;;;19.50;;
58661;SDS011;44432;49.786;22.760;2022-09-09T05:30:13;25.30;;;19.20;;
58661;SDS011;44432;49.786;22.760;2022-09-09T05:32:44;25.60;;;18.80;;
58661;SDS011;44432;49.786;22.760;2022-09-09T05:35:16;24.50;;;18.80;;
58661;SDS011;44432;49.786;22.760;2022-09-09T05:37:48;25.90;;;18.10;;
58661;SDS011;44432;49.786;22.760;2022-09-09T05:40:18;22.40;;;18.10;;
58661;SDS011;44432;49.786;22.760;2022-09-09T05:42:50;25.50;;;17.60;;
58661;SDS011;44432;49.786;22.760;2022-09-09T05:45:21;28.20;;;18.60;;
58661;SDS011;44432;49.786;22.760;2022-09-09T05:47:52;24.20;;;18.00;;
58661;SDS011;44432;49.786;22.760;2022-09-09T05:50:23;23.80;;;19.00;;
58661;SDS011;44432;49.786;22.760;2022-09-09T05:52:55;24.80;;;19.30;;
58661;SDS011;44432;49.786;22.760;2022-09-09T05:55:26;33.20;;;22.00;;
58661;SDS011;44432;49.786;22.760;2022-09-09T05:57:57;28.50;;;20.40;;
58661;SDS011;44432;49.786;22.760;2022-09-09T06:00:28;31.50;;;20.80;;
58661;SDS011;44432;49.786;22.760;2022-09-09T06:02:59;28.30;;;19.70;;
58661;SDS011;44432;49.786;22.760;2022-09-09T06:05:30;28.10;;;20.20;;
58661;SDS011;44432;49.786;22.760;2022-09-09T06:08:02;27.00;;;20.30;;
58661;SDS011;44432;49.786;22.760;2022-09-09T06:10:33;27.30;;;20.40;;
58661;SDS011;44432;49.786;22.760;2022-09-09T06:13:04;30.40;;;20.00;;
58661;SDS011;44432;49.786;22.760;2022-09-09T06:15:34;25.70;;;20.80;;
58661;SDS011;44432;49.786;22.760;2022-09-09T06:18:05;27.50;;;20.40;;
58661;SDS011;44432;49.786;22.760;2022-09-09T06:20:35;27.90;;;21.70;;
58661;SDS011;44432;49.786;22.760;2022-09-09T06:23:06;29.20;;;23.30;;
58661;SDS011;44432;49.786;22.760;2022-09-09T06:25:36;28.20;;;21.40;;
58661;SDS011;44432;49.786;22.760;2022-09-09T06:28:08;30.60;;;21.50;;
58661;SDS011;44432;49.786;22.760;2022-09-09T06:30:38;28.50;;;21.00;;
58661;SDS011;44432;49.786;22.760;2022-09-09T06:33:09;26.50;;;19.80;;
58661;SDS011;44432;49.786;22.760;2022-09-09T06:35:39;28.60;;;21.70;;
58661;SDS011;44432;49.786;22.760;2022-09-09T06:38:10;26.60;;;20.90;;
58661;SDS011;44432;49.786;22.760;2022-09-09T06:40:41;26.30;;;21.20;;
58661;SDS011;44432;49.786;22.760;2022-09-09T06:43:11;28.10;;;21.00;;
58661;SDS011;44432;49.786;22.760;2022-09-09T06:45:42;28.00;;;21.10;;
58661;SDS011;44432;49.786;22.760;2022-09-09T06:48:21;28.00;;;20.60;;
58661;SDS011;44432;49.786;22.760;2022-09-09T06:51:00;34.30;;;23.20;;
58661;SDS011;44432;49.786;22.760;2022-09-09T06:53:32;26.10;;;21.30;;
58661;SDS011;44432;49.786;22.760;2022-09-09T06:56:15;26.40;;;21.30;;
58661;SDS011;44432;49.786;22.760;2022-09-09T06:58:49;24.70;;;20.50;;
58661;SDS011;44432;49.786;22.760;2022-09-09T07:01:22;30.20;;;20.70;;
58661;SDS011;44432;49.786;22.760;2022-09-09T07:03:56;29.40;;;22.20;;
58661;SDS011;44432;49.786;22.760;2022-09-09T07:06:28;26.60;;;21.30;;
58661;SDS011;44432;49.786;22.760;2022-09-09T07:09:00;27.30;;;22.20;;
58661;SDS011;44432;49.786;22.760;2022-09-09T07:11:33;27.80;;;20.40;;
58661;SDS011;44432;49.786;22.760;2022-09-09T07:14:06;26.90;;;22.10;;
58661;SDS011;44432;49.786;22.760;2022-09-09T07:16:41;28.90;;;23.00;;
58661;SDS011;44432;49.786;22.760;2022-09-09T07:19:13;33.90;;;24.40;;
58661;SDS011;44432;49.786;22.760;2022-09-09T07:21:44;29.40;;;23.60;;
58661;SDS011;44432;49.786;22.760;2022-09-09T07:24:14;29.20;;;22.70;;
58661;SDS011;44432;49.786;22.760;2022-09-09T07:26:45;33.20;;;24.00;;
58661;SDS011;44432;49.786;22.760;2022-09-09T07:29:15;31.10;;;24.00;;
58661;SDS011;44432;49.786;22.760;2022-09-09T07:31:46;32.60;;;25.30;;
58661;SDS011;44432;49.786;22.760;2022-09-09T07:34:16;28.80;;;24.70;;
58661;SDS011;44432;49.786;22.760;2022-09-09T07:36:47;28.40;;;23.90;;
58661;SDS011;44432;49.786;22.760;2022-09-09T07:39:18;29.40;;;26.10;;
58661;SDS011;44432;49.786;22.760;2022-09-09T07:41:49;28.70;;;24.90;;
58661;SDS011;44432;49.786;22.760;2022-09-09T07:44:20;31.70;;;25.20;;
58661;SDS011;44432;49.786;22.760;2022-09-09T07:46:52;30.80;;;24.90;;
58661;SDS011;44432;49.786;22.760;2022-09-09T07:49:23;32.20;;;26.20;;
58661;SDS011;44432;49.786;22.760;2022-09-09T07:51:53;30.10;;;25.80;;
58661;SDS011;44432;49.786;22.760;2022-09-09T07:54:24;28.20;;;25.10;;
58661;SDS011;44432;49.786;22.760;2022-09-09T07:56:55;29.70;;;24.90;;
58661;SDS011;44432;49.786;22.760;2022-09-09T07:59:25;31.10;;;24.80;;
58661;SDS011;44432;49.786;22.760;2022-09-09T08:01:57;29.80;;;25.80;;
58661;SDS011;44432;49.786;22.760;2022-09-09T08:04:28;27.80;;;24.60;;
58661;SDS011;44432;49.786;22.760;2022-09-09T08:06:59;26.10;;;23.20;;
58661;SDS011;44432;49.786;22.760;2022-09-09T08:09:30;26.00;;;23.20;;
58661;SDS011;44432;49.786;22.760;2022-09-09T08:12:01;28.20;;;23.20;;
58661;SDS011;44432;49.786;22.760;2022-09-09T08:14:34;27.10;;;22.00;;
58661;SDS011;44432;49.786;22.760;2022-09-09T08:17:05;27.00;;;21.80;;
58661;SDS011;44432;49.786;22.760;2022-09-09T08:19:35;24.00;;;21.40;;
58661;SDS011;44432;49.786;22.760;2022-09-09T08:22:06;26.00;;;21.90;;
58661;SDS011;44432;49.786;22.760;2022-09-09T08:24:37;24.30;;;21.60;;
58661;SDS011;44432;49.786;22.760;2022-09-09T08:27:08;24.80;;;22.00;;
58661;SDS011;44432;49.786;22.760;2022-09-09T08:29:40;24.40;;;21.80;;
58661;SDS011;44432;49.786;22.760;2022-09-09T08:32:10;24.90;;;20.70;;
58661;SDS011;44432;49.786;22.760;2022-09-09T08:34:41;22.00;;;19.60;;
58661;SDS011;44432;49.786;22.760;2022-09-09T08:37:12;25.30;;;19.10;;
58661;SDS011;44432;49.786;22.760;2022-09-09T08:39:42;22.00;;;18.30;;
58661;SDS011;44432;49.786;22.760;2022-09-09T08:45:14;20.90;;;18.30;;
58661;SDS011;44432;49.786;22.760;2022-09-09T08:47:57;19.30;;;17.20;;
58661;SDS011;44432;49.786;22.760;2022-09-09T08:50:38;21.70;;;18.20;;
58661;SDS011;44432;49.786;22.760;2022-09-09T08:55:46;27.60;;;24.40;;
58661;SDS011;44432;49.786;22.760;2022-09-09T08:58:19;19.40;;;17.40;;
58661;SDS011;44432;49.786;22.760;2022-09-09T09:01:00;21.20;;;18.90;;
58661;SDS011;44432;49.786;22.760;2022-09-09T09:03:51;18.60;;;16.70;;
58661;SDS011;44432;49.786;22.760;2022-09-09T09:06:34;18.90;;;16.80;;
58661;SDS011;44432;49.786;22.760;2022-09-09T09:09:18;26.00;;;23.20;;
58661;SDS011;44432;49.786;22.760;2022-09-09T09:11:56;22.70;;;20.30;;
58661;SDS011;44432;49.786;22.760;2022-09-09T09:14:29;19.20;;;17.10;;
58661;SDS011;44432;49.786;22.760;2022-09-09T09:17:03;19.80;;;17.00;;
58661;SDS011;44432;49.786;22.760;2022-09-09T09:19:39;17.90;;;16.00;;
58661;SDS011;44432;49.786;22.760;2022-09-09T09:24:45;17.70;;;15.20;;
58661;SDS011;44432;49.786;22.760;2022-09-09T09:27:25;18.40;;;16.00;;
58661;SDS011;44432;49.786;22.760;2022-09-09T09:30:05;17.40;;;15.60;;
58661;SDS011;44432;49.786;22.760;2022-09-09T09:32:43;17.40;;;14.90;;
58661;SDS011;44432;49.786;22.760;2022-09-09T09:35:18;17.50;;;15.10;;
58661;SDS011;44432;49.786;22.760;2022-09-09T09:37:48;16.70;;;14.90;;
58661;SDS011;44432;49.786;22.760;2022-09-09T09:40:20;17.40;;;15.60;;
58661;SDS011;44432;49.786;22.760;2022-09-09T09:42:53;17.20;;;15.30;;
58661;SDS011;44432;49.786;22.760;2022-09-09T09:45:31;15.20;;;13.70;;
58661;SDS011;44432;49.786;22.760;2022-09-09T09:48:04;16.00;;;14.30;;
58661;SDS011;44432;49.786;22.760;2022-09-09T09:50:46;16.50;;;14.00;;
58661;SDS011;44432;49.786;22.760;2022-09-09T09:53:21;24.80;;;20.30;;
58661;SDS011;44432;49.786;22.760;2022-09-09T09:55:55;14.70;;;13.10;;
58661;SDS011;44432;49.786;22.760;2022-09-09T09:58:26;17.10;;;14.80;;
58661;SDS011;44432;49.786;22.760;2022-09-09T10:01:01;16.70;;;13.90;;
58661;SDS011;44432;49.786;22.760;2022-09-09T10:03:32;16.70;;;14.90;;
58661;SDS011;44432;49.786;22.760;2022-09-09T10:06:06;18.50;;;16.00;;
58661;SDS011;44432;49.786;22.760;2022-09-09T10:08:45;17.20;;;15.40;;
58661;SDS011;44432;49.786;22.760;2022-09-09T10:11:22;16.90;;;15.10;;
58661;SDS011;44432;49.786;22.760;2022-09-09T10:14:12;16.90;;;15.10;;
58661;SDS011;44432;49.786;22.760;2022-09-09T10:16:55;19.20;;;16.20;;
58661;SDS011;44432;49.786;22.760;2022-09-09T10:19:34;15.90;;;14.30;;
58661;SDS011;44432;49.786;22.760;2022-09-09T10:22:08;17.80;;;15.90;;
58661;SDS011;44432;49.786;22.760;2022-09-09T10:24:58;18.40;;;15.20;;
58661;SDS011;44432;49.786;22.760;2022-09-09T10:27:41;17.60;;;15.70;;
58661;SDS011;44432;49.786;22.760;2022-09-09T10:30:22;17.70;;;15.70;;
58661;SDS011;44432;49.786;22.760;2022-09-09T10:33:00;17.60;;;15.30;;
58661;SDS011;44432;49.786;22.760;2022-09-09T10:35:39;18.40;;;15.70;;
58661;SDS011;44432;49.786;22.760;2022-09-09T10:38:17;19.50;;;17.40;;
58661;SDS011;44432;49.786;22.760;2022-09-09T10:41:00;18.70;;;16.40;;
58661;SDS011;44432;49.786;22.760;2022-09-09T10:43:42;17.20;;;15.40;;
58661;SDS011;44432;49.786;22.760;2022-09-09T10:49:03;18.50;;;16.60;;
58661;SDS011;44432;49.786;22.760;2022-09-09T10:51:45;18.30;;;16.40;;
58661;SDS011;44432;49.786;22.760;2022-09-09T10:54:26;17.50;;;15.70;;
58661;SDS011;44432;49.786;22.760;2022-09-09T10:57:10;17.40;;;15.10;;
58661;SDS011;44432;49.786;22.760;2022-09-09T10:59:46;17.90;;;14.80;;
58661;SDS011;44432;49.786;22.760;2022-09-09T11:02:22;16.90;;;14.20;;
58661;SDS011;44432;49.786;22.760;2022-09-09T11:04:57;16.50;;;14.40;;
58661;SDS011;44432;49.786;22.760;2022-09-09T11:07:34;19.20;;;15.00;;
58661;SDS011;44432;49.786;22.760;2022-09-09T11:10:15;18.00;;;15.10;;
58661;SDS011;44432;49.786;22.760;2022-09-09T11:12:53;16.80;;;14.40;;
58661;SDS011;44432;49.786;22.760;2022-09-09T11:15:30;19.50;;;16.00;;
58661;SDS011;44432;49.786;22.760;2022-09-09T11:18:10;18.70;;;14.90;;
58661;SDS011;44432;49.786;22.760;2022-09-09T11:20:44;22.40;;;16.40;;
58661;SDS011;44432;49.786;22.760;2022-09-09T11:23:16;19.00;;;16.50;;
58661;SDS011;44432;49.786;22.760;2022-09-09T11:25:52;19.90;;;14.80;;
58661;SDS011;44432;49.786;22.760;2022-09-09T11:28:36;20.50;;;15.40;;
58661;SDS011;44432;49.786;22.760;2022-09-09T11:31:21;18.60;;;15.80;;
58661;SDS011;44432;49.786;22.760;2022-09-09T11:34:12;19.60;;;15.10;;
58661;SDS011;44432;49.786;22.760;2022-09-09T11:37:09;21.90;;;17.20;;
58661;SDS011;44432;49.786;22.760;2022-09-09T11:42:47;15.80;;;14.10;;
58661;SDS011;44432;49.786;22.760;2022-09-09T11:45:29;16.40;;;14.70;;
58661;SDS011;44432;49.786;22.760;2022-09-09T11:48:01;18.50;;;14.90;;
58661;SDS011;44432;49.786;22.760;2022-09-09T11:50:35;17.10;;;13.90;;
58661;SDS011;44432;49.786;22.760;2022-09-09T11:53:20;18.50;;;15.30;;
58661;SDS011;44432;49.786;22.760;2022-09-09T11:56:08;19.00;;;16.50;;
58661;SDS011;44432;49.786;22.760;2022-09-09T11:58:43;22.10;;;17.20;;
58661;SDS011;44432;49.786;22.760;2022-09-09T12:01:28;20.10;;;15.10;;
58661;SDS011;44432;49.786;22.760;2022-09-09T12:04:15;18.60;;;15.00;;
58661;SDS011;44432;49.786;22.760;2022-09-09T12:06:56;19.00;;;15.40;;
58661;SDS011;44432;49.786;22.760;2022-09-09T12:12:23;20.10;;;15.40;;
58661;SDS011;44432;49.786;22.760;2022-09-09T12:14:56;21.10;;;16.30;;
58661;SDS011;44432;49.786;22.760;2022-09-09T12:17:30;17.60;;;15.00;;
58661;SDS011;44432;49.786;22.760;2022-09-09T12:20:11;22.60;;;15.60;;
58661;SDS011;44432;49.786;22.760;2022-09-09T12:22:47;19.50;;;15.20;;
58661;SDS011;44432;49.786;22.760;2022-09-09T12:25:29;16.80;;;13.90;;
58661;SDS011;44432;49.786;22.760;2022-09-09T12:28:11;16.70;;;13.60;;
58661;SDS011;44432;49.786;22.760;2022-09-09T12:30:46;17.20;;;14.40;;
58661;SDS011;44432;49.786;22.760;2022-09-09T12:33:33;17.30;;;13.70;;
58661;SDS011;44432;49.786;22.760;2022-09-09T12:36:05;16.30;;;13.80;;
58661;SDS011;44432;49.786;22.760;2022-09-09T12:38:41;16.20;;;13.20;;
58661;SDS011;44432;49.786;22.760;2022-09-09T12:41:19;18.50;;;12.80;;
58661;SDS011;44432;49.786;22.760;2022-09-09T12:44:02;16.40;;;13.00;;
58661;SDS011;44432;49.786;22.760;2022-09-09T12:46:36;16.90;;;14.40;;
58661;SDS011;44432;49.786;22.760;2022-09-09T12:49:21;17.70;;;13.70;;
58661;SDS011;44432;49.786;22.760;2022-09-09T12:51:58;16.50;;;13.80;;
58661;SDS011;44432;49.786;22.760;2022-09-09T12:54:30;16.40;;;13.80;;
58661;SDS011;44432;49.786;22.760;2022-09-09T12:57:01;18.00;;;14.30;;
58661;SDS011;44432;49.786;22.760;2022-09-09T12:59:36;19.10;;;14.00;;
58661;SDS011;44432;49.786;22.760;2022-09-09T13:02:22;18.30;;;14.10;;
58661;SDS011;44432;49.786;22.760;2022-09-09T13:04:53;17.30;;;14.00;;
58661;SDS011;44432;49.786;22.760;2022-09-09T13:07:34;16.00;;;13.60;;
58661;SDS011;44432;49.786;22.760;2022-09-09T13:10:05;16.90;;;13.30;;
58661;SDS011;44432;49.786;22.760;2022-09-09T13:12:39;15.70;;;12.90;;
58661;SDS011;44432;49.786;22.760;2022-09-09T13:15:16;14.00;;;12.40;;
58661;SDS011;44432;49.786;22.760;2022-09-09T13:17:52;15.30;;;12.50;;
58661;SDS011;44432;49.786;22.760;2022-09-09T13:20:24;16.30;;;13.00;;
58661;SDS011;44432;49.786;22.760;2022-09-09T13:22:57;16.10;;;12.60;;
58661;SDS011;44432;49.786;22.760;2022-09-09T13:25:28;14.40;;;12.40;;
58661;SDS011;44432;49.786;22.760;2022-09-09T13:27:59;15.20;;;13.00;;
58661;SDS011;44432;49.786;22.760;2022-09-09T13:30:32;13.60;;;11.60;;
58661;SDS011;44432;49.786;22.760;2022-09-09T13:35:52;16.80;;;12.90;;
58661;SDS011;44432;49.786;22.760;2022-09-09T13:38:25;17.10;;;13.00;;
58661;SDS011;44432;49.786;22.760;2022-09-09T13:40:58;15.80;;;11.70;;
58661;SDS011;44432;49.786;22.760;2022-09-09T13:43:34;18.30;;;15.00;;
58661;SDS011;44432;49.786;22.760;2022-09-09T13:46:21;15.90;;;13.00;;
58661;SDS011;44432;49.786;22.760;2022-09-09T13:49:00;14.10;;;11.90;;
58661;SDS011;44432;49.786;22.760;2022-09-09T13:51:48;13.90;;;11.90;;
58661;SDS011;44432;49.786;22.760;2022-09-09T13:54:21;13.20;;;10.70;;
58661;SDS011;44432;49.786;22.760;2022-09-09T13:56:52;12.50;;;11.10;;
58661;SDS011;44432;49.786;22.760;2022-09-09T13:59:22;12.50;;;10.40;;
58661;SDS011;44432;49.786;22.760;2022-09-09T14:01:53;14.40;;;10.60;;
58661;SDS011;44432;49.786;22.760;2022-09-09T14:04:24;13.50;;;10.60;;
58661;SDS011;44432;49.786;22.760;2022-09-09T14:06:55;16.00;;;12.00;;
58661;SDS011;44432;49.786;22.760;2022-09-09T14:09:27;12.50;;;10.80;;
58661;SDS011;44432;49.786;22.760;2022-09-09T14:11:57;14.30;;;10.10;;
58661;SDS011;44432;49.786;22.760;2022-09-09T14:14:28;13.20;;;11.10;;
58661;SDS011;44432;49.786;22.760;2022-09-09T14:16:58;12.10;;;10.60;;
58661;SDS011;44432;49.786;22.760;2022-09-09T14:19:29;13.30;;;10.00;;
58661;SDS011;44432;49.786;22.760;2022-09-09T14:22:00;12.20;;;10.30;;
58661;SDS011;44432;49.786;22.760;2022-09-09T14:24:30;13.80;;;10.00;;
58661;SDS011;44432;49.786;22.760;2022-09-09T14:27:01;14.80;;;10.40;;
58661;SDS011;44432;49.786;22.760;2022-09-09T14:29:31;11.90;;;9.60;;
58661;SDS011;44432;49.786;22.760;2022-09-09T14:32:02;10.80;;;9.50;;
58661;SDS011;44432;49.786;22.760;2022-09-09T14:34:33;12.70;;;9.60;;
58661;SDS011;44432;49.786;22.760;2022-09-09T14:37:04;13.00;;;10.40;;
58661;SDS011;44432;49.786;22.760;2022-09-09T14:39:34;14.00;;;9.90;;
58661;SDS011;44432;49.786;22.760;2022-09-09T14:42:05;14.10;;;10.30;;
58661;SDS011;44432;49.786;22.760;2022-09-09T14:44:38;10.60;;;9.50;;
58661;SDS011;44432;49.786;22.760;2022-09-09T14:47:09;11.60;;;9.10;;
58661;SDS011;44432;49.786;22.760;2022-09-09T14:49:40;11.20;;;9.40;;
58661;SDS011;44432;49.786;22.760;2022-09-09T14:52:10;14.60;;;9.60;;
58661;SDS011;44432;49.786;22.760;2022-09-09T14:54:41;10.70;;;9.20;;
58661;SDS011;44432;49.786;22.760;2022-09-09T14:57:12;13.00;;;9.50;;
58661;SDS011;44432;49.786;22.760;2022-09-09T14:59:42;13.10;;;9.10;;
58661;SDS011;44432;49.786;22.760;2022-09-09T15:02:13;12.10;;;10.20;;
58661;SDS011;44432;49.786;22.760;2022-09-09T15:04:44;18.60;;;16.60;;
58661;SDS011;44432;49.786;22.760;2022-09-09T15:07:14;14.40;;;10.60;;
58661;SDS011;44432;49.786;22.760;2022-09-09T15:09:46;11.80;;;10.00;;
58661;SDS011;44432;49.786;22.760;2022-09-09T15:12:17;16.40;;;11.90;;
58661;SDS011;44432;49.786;22.760;2022-09-09T15:14:48;13.60;;;10.50;;
58661;SDS011;44432;49.786;22.760;2022-09-09T15:17:19;15.60;;;10.20;;
58661;SDS011;44432;49.786;22.760;2022-09-09T15:19:52;11.90;;;10.40;;